createdAt,value
2018-03-21T00:00:22.757Z,9.55
2018-03-21T00:02:53.271Z,11.75
2018-03-21T00:05:24.568Z,12.98
2018-03-21T00:13:02.537Z,9.57
2018-03-21T00:15:30.080Z,8.10
2018-03-21T00:17:57.596Z,7.40
2018-03-21T00:20:27.597Z,6.72
2018-03-21T00:29:46.353Z,9.13
2018-03-21T00:32:13.884Z,7.60
2018-03-21T00:34:41.413Z,7.25
2018-03-21T00:37:12.854Z,6.25
2018-03-21T00:39:43.611Z,6.57
2018-03-21T00:47:28.184Z,6.50
2018-03-21T00:49:55.725Z,7.20
2018-03-21T00:52:23.307Z,6.85
2018-03-21T00:54:53.385Z,6.68
2018-03-21T00:57:29.401Z,6.12
2018-03-21T00:59:57.334Z,6.10
2018-03-21T01:02:25.166Z,5.62
2018-03-21T01:04:52.726Z,5.97
2018-03-21T01:07:20.373Z,5.78
2018-03-21T01:09:47.932Z,5.80
2018-03-21T01:12:20.489Z,5.75
2018-03-21T01:14:52.193Z,5.62
2018-03-21T01:17:23.912Z,6.18
2018-03-21T01:19:51.486Z,6.05
2018-03-21T01:22:19.031Z,6.53
2018-03-21T01:24:46.591Z,6.28
2018-03-21T01:27:14.128Z,6.53
2018-03-21T01:29:43.612Z,6.32
2018-03-21T01:32:16.634Z,6.50
2018-03-21T01:34:47.708Z,6.55
2018-03-21T01:37:15.273Z,6.68
2018-03-21T01:39:42.820Z,6.82
2018-03-21T01:42:10.353Z,6.97
2018-03-21T01:44:37.890Z,6.05
2018-03-21T01:47:05.632Z,6.00
2018-03-21T01:49:40.721Z,5.70
2018-03-21T01:52:12.340Z,5.40
2018-03-21T01:54:39.913Z,6.03
2018-03-21T01:57:07.474Z,6.07
2018-03-21T01:59:35.470Z,5.93
2018-03-21T02:02:03.096Z,5.60
2018-03-21T02:04:31.699Z,6.00
2018-03-21T02:07:01.372Z,6.12
2018-03-21T02:09:29.067Z,6.40
2018-03-21T02:11:56.602Z,6.10
2018-03-21T02:14:24.172Z,6.65
2018-03-21T02:16:51.748Z,6.12
2018-03-21T02:19:19.281Z,6.50
2018-03-21T02:21:49.342Z,7.10
2018-03-21T02:24:17.114Z,6.40
2018-03-21T02:26:48.364Z,6.72
2018-03-21T02:29:15.920Z,6.22
2018-03-21T02:31:43.662Z,6.50
2018-03-21T02:34:11.202Z,5.62
2018-03-21T02:36:38.773Z,5.78
2018-03-21T02:39:08.438Z,6.90
2018-03-21T02:41:37.519Z,6.22
2018-03-21T02:44:05.191Z,6.28
2018-03-21T02:46:32.729Z,6.18
2018-03-21T02:49:00.275Z,6.80
2018-03-21T02:51:27.855Z,6.95
2018-03-21T02:53:55.413Z,7.35
2018-03-21T02:56:27.689Z,7.78
2018-03-21T02:58:56.458Z,7.40
2018-03-21T03:01:27.647Z,7.65
2018-03-21T03:03:55.276Z,6.68
2018-03-21T03:06:22.784Z,8.40
2018-03-21T03:08:50.346Z,8.10
2018-03-21T03:11:18.127Z,7.53
2018-03-21T03:13:47.482Z,7.60
2018-03-21T03:16:20.446Z,7.30
2018-03-21T03:18:49.581Z,7.75
2018-03-21T03:21:17.141Z,7.30
2018-03-21T03:23:44.717Z,7.68
2018-03-21T03:26:12.293Z,6.72
2018-03-21T03:28:40.290Z,6.75
2018-03-21T03:31:13.508Z,7.18
2018-03-21T03:33:41.179Z,6.03
2018-03-21T03:36:11.548Z,6.65
2018-03-21T03:38:39.060Z,7.00
2018-03-21T03:41:06.591Z,6.45
2018-03-21T03:43:35.118Z,7.00
2018-03-21T03:46:07.692Z,7.70
2018-03-21T03:48:39.856Z,7.10
2018-03-21T03:51:12.017Z,6.65
2018-03-21T03:53:40.523Z,6.80
2018-03-21T03:56:08.068Z,7.05
2018-03-21T03:58:35.621Z,6.87
2018-03-21T04:01:03.174Z,7.25
2018-03-21T04:03:31.919Z,7.12
2018-03-21T04:06:04.645Z,6.97
2018-03-21T04:08:33.408Z,7.15
2018-03-21T04:11:01.130Z,7.00
2018-03-21T04:13:28.672Z,7.25
2018-03-21T04:15:56.249Z,7.90
2018-03-21T04:18:23.800Z,7.00
2018-03-21T04:20:53.122Z,6.70
2018-03-21T04:23:21.321Z,7.25
2018-03-21T04:25:51.861Z,7.15
2018-03-21T04:28:20.624Z,7.00
2018-03-21T04:30:48.189Z,7.93
2018-03-21T04:33:15.736Z,10.95
2018-03-21T04:35:43.464Z,12.30
2018-03-21T04:38:11.623Z,34.15
2018-03-21T04:40:40.076Z,17.27
2018-03-21T04:43:08.433Z,7.55
2018-03-21T04:45:37.397Z,7.70
2018-03-21T04:48:04.976Z,7.80
2018-03-21T04:50:32.557Z,7.65
2018-03-21T04:53:00.156Z,7.18
2018-03-21T04:55:29.205Z,7.07
2018-03-21T04:57:59.730Z,7.53
2018-03-21T05:00:28.486Z,7.43
2018-03-21T05:02:57.700Z,7.15
2018-03-21T05:05:28.073Z,7.30
2018-03-21T05:07:55.616Z,7.70
2018-03-21T05:10:23.168Z,7.15
2018-03-21T05:12:52.309Z,7.40
2018-03-21T05:15:24.289Z,7.32
2018-03-21T05:17:53.104Z,6.93
2018-03-21T05:20:21.240Z,7.70
2018-03-21T05:22:48.837Z,7.22
2018-03-21T05:25:16.415Z,7.60
2018-03-21T05:27:44.893Z,7.50
2018-03-21T05:30:13.737Z,7.65
2018-03-21T05:32:44.770Z,7.80
2018-03-21T05:35:16.438Z,7.22
2018-03-21T05:37:49.050Z,7.97
2018-03-21T05:40:16.628Z,7.40
2018-03-21T05:42:44.189Z,7.57
2018-03-21T05:45:11.725Z,7.45
2018-03-21T05:47:41.318Z,7.43
2018-03-21T05:50:13.587Z,9.93
2018-03-21T05:52:41.322Z,13.60
2018-03-21T05:55:09.513Z,14.98
2018-03-21T05:57:37.880Z,11.77
2018-03-21T06:00:05.398Z,16.83
2018-03-21T06:02:32.959Z,19.05
2018-03-21T06:05:03.532Z,19.35
2018-03-21T06:07:33.572Z,16.73
2018-03-21T06:10:01.619Z,13.68
2018-03-21T06:12:29.403Z,10.95
2018-03-21T06:14:56.962Z,8.73
2018-03-21T06:17:24.505Z,7.70
2018-03-21T06:19:52.088Z,8.20
2018-03-21T06:22:24.585Z,11.98
2018-03-21T06:24:56.627Z,9.15
2018-03-21T06:27:25.290Z,7.80
2018-03-21T06:29:55.552Z,7.25
2018-03-21T06:32:23.073Z,7.12
2018-03-21T06:34:50.629Z,7.00
2018-03-21T06:37:21.555Z,6.30
2018-03-21T06:39:56.921Z,7.28
2018-03-21T06:42:27.971Z,6.60
2018-03-21T06:45:00.530Z,6.15
2018-03-21T06:47:29.673Z,5.60
2018-03-21T06:49:57.246Z,6.20
2018-03-21T06:52:24.783Z,5.85
2018-03-21T06:54:52.353Z,7.50
2018-03-21T06:57:22.078Z,6.18
2018-03-21T07:02:24.249Z,5.75
2018-03-21T07:04:51.824Z,5.90
2018-03-21T07:07:19.368Z,6.43
2018-03-21T07:09:47.512Z,6.50
2018-03-21T07:12:15.834Z,7.37
2018-03-21T07:26:52.071Z,7.95
2018-03-21T07:41:24.227Z,7.15
2018-03-21T07:43:56.065Z,7.45
2018-03-21T07:46:29.431Z,7.75
2018-03-21T07:58:05.334Z,9.77
2018-03-21T08:00:32.913Z,10.40
2018-03-21T08:03:00.489Z,9.07
2018-03-21T08:14:37.941Z,9.02
2018-03-21T08:17:05.534Z,9.02
2018-03-21T08:19:33.053Z,8.73
2018-03-21T08:31:15.459Z,9.80
2018-03-21T08:33:42.970Z,10.40
2018-03-21T08:36:10.501Z,10.57
2018-03-21T08:38:38.261Z,11.65
2018-03-21T08:43:41.334Z,15.25
2018-03-21T08:49:11.786Z,10.77
2018-03-21T08:51:39.430Z,10.02
2018-03-21T08:54:07.048Z,9.68
2018-03-21T09:05:44.138Z,9.43
2018-03-21T09:08:11.842Z,9.48
2018-03-21T09:10:39.431Z,9.05
2018-03-21T09:22:19.800Z,9.35
2018-03-21T09:24:47.373Z,10.38
2018-03-21T09:27:14.913Z,10.52
2018-03-21T09:29:42.448Z,9.13
2018-03-21T09:32:12.649Z,9.48
2018-03-21T09:34:41.372Z,9.20
2018-03-21T09:37:08.969Z,8.60
2018-03-21T09:39:36.522Z,9.80
2018-03-21T09:42:04.048Z,9.50
2018-03-21T09:44:31.602Z,8.93
2018-03-21T09:46:59.173Z,9.40
2018-03-21T09:52:24.148Z,9.55
2018-03-21T09:57:43.405Z,8.27
2018-03-21T10:00:10.973Z,7.80
2018-03-21T10:02:38.504Z,7.18
2018-03-21T10:05:06.120Z,8.45
2018-03-21T10:10:28.700Z,7.00
2018-03-21T10:12:57.821Z,7.43
2018-03-21T10:15:25.375Z,7.20
2018-03-21T10:17:52.922Z,5.90
2018-03-21T10:20:20.489Z,5.20
2018-03-21T10:22:48.131Z,6.20
2018-03-21T10:25:20.629Z,5.55
2018-03-21T10:33:29.267Z,1.85
2018-03-21T10:35:56.794Z,2.00
2018-03-21T10:38:24.367Z,1.87
2018-03-21T10:49:23.053Z,1.80
2018-03-21T10:51:50.667Z,1.95
2018-03-21T10:54:18.207Z,1.80
2018-03-21T10:56:45.754Z,1.60
2018-03-21T11:07:42.898Z,1.70
2018-03-21T11:10:10.387Z,1.65
2018-03-21T11:12:37.974Z,2.00
2018-03-21T11:23:28.484Z,1.77
2018-03-21T11:25:56.547Z,1.52
2018-03-21T11:28:24.056Z,1.80
2018-03-21T11:30:51.700Z,1.58
2018-03-21T11:42:29.037Z,2.17
2018-03-21T11:44:56.637Z,2.20
2018-03-21T11:47:24.162Z,2.83
2018-03-21T11:58:40.404Z,2.05
2018-03-21T12:01:07.981Z,1.42
2018-03-21T12:03:35.539Z,2.12
2018-03-21T12:32:29.144Z,3.60
2018-03-21T12:34:56.711Z,3.97
2018-03-21T12:37:24.271Z,4.32
2018-03-21T12:39:51.857Z,3.42
2018-03-21T12:42:21.777Z,3.77
2018-03-21T12:50:43.686Z,3.22
2018-03-21T12:53:11.239Z,3.03
2018-03-21T12:55:38.820Z,4.68
2018-03-21T12:58:28.841Z,4.53
2018-03-21T13:06:27.184Z,4.30
2018-03-21T13:08:54.712Z,4.55
2018-03-21T13:11:22.996Z,4.23
2018-03-21T13:13:50.601Z,4.30
2018-03-21T13:16:21.397Z,4.70
2018-03-21T13:24:12.993Z,4.70
2018-03-21T13:26:40.589Z,3.97
2018-03-21T13:29:08.147Z,4.20
2018-03-21T13:31:35.789Z,4.37
2018-03-21T13:39:36.427Z,3.77
2018-03-21T13:42:04.742Z,3.90
2018-03-21T13:44:32.374Z,3.57
2018-03-21T13:46:59.935Z,3.60
2018-03-21T13:49:28.457Z,3.40
2018-03-21T13:51:57.317Z,3.70
2018-03-21T13:54:25.825Z,3.40
2018-03-21T13:56:53.454Z,3.77
2018-03-21T13:59:20.981Z,3.27
2018-03-21T14:01:48.531Z,4.17
2018-03-21T14:04:16.079Z,3.03
2018-03-21T14:06:44.948Z,3.00
2018-03-21T14:09:13.853Z,3.47
2018-03-21T14:11:41.530Z,3.00
2018-03-21T14:14:09.530Z,3.00
2018-03-21T14:16:37.060Z,2.73
2018-03-21T14:19:04.597Z,3.00
2018-03-21T14:21:32.141Z,2.77
2018-03-21T14:24:00.028Z,2.03
2018-03-21T14:26:34.294Z,2.30
2018-03-21T14:29:04.653Z,2.40
2018-03-21T14:31:36.710Z,2.50
2018-03-21T14:34:04.276Z,2.20
2018-03-21T14:36:31.795Z,3.60
2018-03-21T14:38:59.345Z,2.03
2018-03-21T14:44:21.601Z,2.20
2018-03-21T14:46:52.676Z,2.20
2018-03-21T14:49:21.324Z,2.27
2018-03-21T14:51:48.909Z,2.07
2018-03-21T14:54:16.463Z,1.90
2018-03-21T14:56:44.008Z,2.30
2018-03-21T14:59:15.775Z,2.10
2018-03-21T15:01:45.955Z,2.03
2018-03-21T15:04:13.637Z,2.00
2018-03-21T15:06:49.001Z,2.47
2018-03-21T15:09:16.521Z,2.50
2018-03-21T15:11:44.067Z,1.80
2018-03-21T15:14:11.596Z,2.47
2018-03-21T15:16:41.649Z,2.53
2018-03-21T15:19:12.045Z,2.40
2018-03-21T15:21:41.070Z,5.70
2018-03-21T15:24:09.453Z,2.20
2018-03-21T15:26:37.012Z,1.87
2018-03-21T15:29:04.551Z,2.50
2018-03-21T15:31:32.155Z,2.13
2018-03-21T15:34:01.680Z,2.23
2018-03-21T15:36:48.344Z,1.93
2018-03-21T15:39:17.827Z,1.43
2018-03-21T15:41:45.413Z,2.20
2018-03-21T15:44:12.948Z,2.00
2018-03-21T15:46:40.522Z,2.90
2018-03-21T15:49:08.107Z,2.60
2018-03-21T15:51:37.618Z,3.67
2018-03-21T15:54:07.809Z,3.50
2018-03-21T15:56:41.017Z,2.20
2018-03-21T15:59:08.566Z,2.43
2018-03-21T16:01:36.106Z,3.13
2018-03-21T16:04:03.633Z,2.20
2018-03-21T16:06:31.183Z,2.00
2018-03-21T16:11:37.338Z,1.40
2018-03-21T16:14:07.761Z,2.50
2018-03-21T16:16:35.418Z,2.20
2018-03-21T16:19:02.950Z,3.53
2018-03-21T16:21:30.468Z,6.50
2018-03-21T16:23:58.060Z,2.57
2018-03-21T16:26:25.976Z,2.23
2018-03-21T16:28:53.995Z,2.23
2018-03-21T16:31:32.007Z,2.37
2018-03-21T16:33:59.593Z,2.77
2018-03-21T16:36:27.138Z,2.57
2018-03-21T16:38:54.666Z,2.13
2018-03-21T16:41:22.227Z,1.87
2018-03-21T16:52:03.626Z,2.30
2018-03-21T16:54:31.128Z,3.20
2018-03-21T16:56:58.689Z,2.60
2018-03-21T17:08:35.083Z,2.53
2018-03-21T17:11:03.634Z,2.67
2018-03-21T17:13:31.158Z,3.07
2018-03-21T17:27:56.640Z,9.18
2018-03-21T17:30:24.210Z,15.77
2018-03-21T17:42:09.434Z,3.08
2018-03-21T17:44:37.066Z,4.68
2018-03-21T17:47:04.625Z,3.40
2018-03-21T17:49:32.213Z,4.12
2018-03-21T18:00:41.733Z,3.72
2018-03-21T18:03:09.293Z,4.00
2018-03-21T18:05:36.859Z,3.45
2018-03-21T18:17:13.193Z,3.45
2018-03-21T18:19:40.775Z,2.80
2018-03-21T18:22:08.303Z,4.20
2018-03-21T18:24:35.914Z,2.97
2018-03-21T18:27:04.171Z,2.67
2018-03-21T18:29:31.827Z,3.00
2018-03-21T18:31:59.701Z,3.15
2018-03-21T18:34:27.221Z,3.10
2018-03-21T18:36:54.760Z,3.42
2018-03-21T18:39:22.273Z,3.37
2018-03-21T18:41:50.701Z,3.30
2018-03-21T18:44:19.753Z,2.92
2018-03-21T18:46:47.345Z,3.60
2018-03-21T18:49:14.926Z,2.92
2018-03-21T18:51:42.470Z,3.10
2018-03-21T18:54:10.049Z,3.47
2018-03-21T18:56:37.561Z,3.62
2018-03-21T18:59:05.104Z,2.90
2018-03-21T19:01:32.629Z,3.78
2018-03-21T19:04:00.194Z,3.55
2018-03-21T19:06:27.855Z,3.10
2018-03-21T19:08:55.373Z,3.28
2018-03-21T19:11:22.934Z,3.00
2018-03-21T19:13:50.464Z,3.03
2018-03-21T19:16:17.985Z,3.25
2018-03-21T19:18:45.544Z,3.22
2018-03-21T19:21:13.122Z,2.80
2018-03-21T19:23:40.679Z,2.95
2018-03-21T19:26:08.181Z,3.55
2018-03-21T19:28:35.691Z,2.70
2018-03-21T19:31:03.204Z,3.05
2018-03-21T19:33:30.733Z,2.75
2018-03-21T19:35:58.330Z,2.95
2018-03-21T19:38:25.908Z,3.08
2018-03-21T19:40:53.440Z,2.62
2018-03-21T19:43:20.948Z,2.45
2018-03-21T19:45:48.444Z,2.83
2018-03-21T19:48:15.967Z,3.72
2018-03-21T19:50:43.493Z,2.80
2018-03-21T19:53:11.136Z,3.50
2018-03-21T19:55:38.692Z,2.90
2018-03-21T19:58:06.238Z,3.00
2018-03-21T20:00:33.771Z,3.25
2018-03-21T20:03:01.339Z,2.80
2018-03-21T20:05:28.838Z,3.20
2018-03-21T20:07:56.445Z,2.85
2018-03-21T20:10:24.009Z,3.20
2018-03-21T20:12:51.673Z,2.80
2018-03-21T20:15:19.292Z,3.50
2018-03-21T20:17:46.774Z,2.30
2018-03-21T20:20:14.318Z,3.80
2018-03-21T20:22:41.829Z,3.15
2018-03-21T20:25:09.469Z,2.67
2018-03-21T20:27:37.033Z,3.47
2018-03-21T20:30:04.593Z,2.95
2018-03-21T20:32:32.541Z,2.62
2018-03-21T20:35:00.093Z,3.25
2018-03-21T20:37:27.600Z,2.70
2018-03-21T20:39:55.108Z,2.85
2018-03-21T20:42:23.362Z,3.67
2018-03-21T20:44:50.897Z,3.03
2018-03-21T20:47:18.468Z,2.83
2018-03-21T20:49:46.040Z,2.92
2018-03-21T20:52:13.541Z,2.90
2018-03-21T20:54:41.077Z,3.40
2018-03-21T20:57:09.268Z,2.83
2018-03-21T20:59:36.827Z,2.80
2018-03-21T21:02:04.453Z,3.37
2018-03-21T21:04:32.092Z,3.37
2018-03-21T21:06:59.674Z,3.08
2018-03-21T21:09:27.204Z,2.97
2018-03-21T21:11:54.733Z,2.90
2018-03-21T21:14:22.269Z,2.95
2018-03-21T21:16:49.831Z,3.05
2018-03-21T21:19:17.354Z,2.90
2018-03-21T21:21:44.893Z,3.53
2018-03-21T21:24:12.408Z,3.70
2018-03-21T21:26:39.918Z,3.25
2018-03-21T21:29:07.440Z,3.15
2018-03-21T21:31:34.950Z,3.47
2018-03-21T21:34:02.553Z,3.37
2018-03-21T21:36:33.402Z,4.72
2018-03-21T21:39:01.021Z,3.75
2018-03-21T21:41:28.582Z,3.70
2018-03-21T21:43:56.125Z,4.20
2018-03-21T21:46:23.636Z,3.70
2018-03-21T21:48:51.157Z,3.55
2018-03-21T21:51:18.705Z,3.22
2018-03-21T21:53:46.241Z,3.80
2018-03-21T21:56:13.780Z,3.80
2018-03-21T21:58:41.329Z,4.43
2018-03-21T22:01:08.881Z,4.15
2018-03-21T22:03:36.381Z,4.00
2018-03-21T22:06:03.919Z,4.20
2018-03-21T22:08:31.485Z,4.82
2018-03-21T22:10:59.061Z,4.68
2018-03-21T22:13:26.879Z,3.83
2018-03-21T22:15:56.121Z,3.50
2018-03-21T22:18:23.641Z,3.72
2018-03-21T22:20:51.192Z,3.85
2018-03-21T22:23:18.728Z,4.12
2018-03-21T22:25:46.265Z,3.87
2018-03-21T22:28:13.806Z,4.45
2018-03-21T22:30:41.928Z,4.03
2018-03-21T22:33:10.001Z,3.87
2018-03-21T22:35:37.549Z,3.78
2018-03-21T22:38:05.116Z,4.53
2018-03-21T22:40:32.630Z,4.10
2018-03-21T22:43:00.245Z,4.25
2018-03-21T22:45:28.393Z,3.17
2018-03-21T22:47:57.551Z,4.45
2018-03-21T22:50:25.162Z,3.62
2018-03-21T22:52:52.673Z,4.05
2018-03-21T22:55:20.185Z,4.80
2018-03-21T22:57:47.705Z,4.75
2018-03-21T23:00:15.249Z,4.82
2018-03-21T23:02:42.812Z,4.82
2018-03-21T23:05:10.418Z,4.93
2018-03-21T23:07:37.995Z,3.72
2018-03-21T23:10:05.560Z,4.15
2018-03-21T23:12:33.076Z,4.55
2018-03-21T23:15:00.618Z,4.07
2018-03-21T23:17:28.204Z,4.32
2018-03-21T23:19:55.872Z,4.75
2018-03-21T23:22:24.165Z,5.05
2018-03-21T23:24:51.987Z,4.40
2018-03-21T23:27:19.510Z,4.50
2018-03-21T23:29:47.041Z,4.53
2018-03-21T23:32:14.577Z,4.37
2018-03-21T23:34:42.208Z,4.68
2018-03-21T23:37:09.842Z,4.90
2018-03-21T23:39:41.930Z,4.28
2018-03-21T23:42:09.785Z,4.35
2018-03-21T23:44:37.830Z,4.53
2018-03-21T23:47:05.362Z,4.50
2018-03-21T23:49:32.880Z,4.68
2018-03-21T23:52:00.406Z,5.37
2018-03-21T23:54:28.174Z,4.20
2018-03-21T23:56:55.792Z,5.47
2018-03-21T23:59:23.416Z,6.10
